sensor_id;sensor_type;location;lat;lon;timestamp;pressure;altitude;pressure_sealevel;temperature;humidity
6899;BME280;3488;42.616;23.350;2023-02-22T00:00:35;62881.78;;;8.57;49.45
6899;BME280;3488;42.616;23.350;2023-02-22T00:03:09;62888.34;;;8.56;49.15
6899;BME280;3488;42.616;23.350;2023-02-22T00:05:37;62877.63;;;8.53;49.70
6899;BME280;3488;42.616;23.350;2023-02-22T00:08:06;62872.53;;;8.50;49.43
6899;BME280;3488;42.616;23.350;2023-02-22T00:10:36;62869.91;;;8.45;49.74
6899;BME280;3488;42.616;23.350;2023-02-22T00:13:08;62863.75;;;8.42;50.23
6899;BME280;3488;42.616;23.350;2023-02-22T00:15:36;62860.59;;;8.36;49.86
6899;BME280;3488;42.616;23.350;2023-02-22T00:18:06;62854.38;;;8.30;50.33
6899;BME280;3488;42.616;23.350;2023-02-22T00:20:34;62846.06;;;8.19;49.83
6899;BME280;3488;42.616;23.350;2023-02-22T00:23:04;62838.41;;;8.17;49.80
6899;BME280;3488;42.616;23.350;2023-02-22T00:25:32;62845.56;;;8.19;50.50
6899;BME280;3488;42.616;23.350;2023-02-22T00:28:00;62830.72;;;8.12;50.59
6899;BME280;3488;42.616;23.350;2023-02-22T00:30:31;62832.13;;;8.06;49.81
6899;BME280;3488;42.616;23.350;2023-02-22T00:32:58;62834.75;;;8.11;49.38
6899;BME280;3488;42.616;23.350;2023-02-22T00:35:27;62825.50;;;8.04;49.78
6899;BME280;3488;42.616;23.350;2023-02-22T00:37:55;62835.72;;;8.09;49.13
6899;BME280;3488;42.616;23.350;2023-02-22T00:40:24;62827.03;;;8.06;49.66
6899;BME280;3488;42.616;23.350;2023-02-22T00:42:52;62838.88;;;8.15;49.54
6899;BME280;3488;42.616;23.350;2023-02-22T00:45:21;62848.28;;;8.29;48.59
6899;BME280;3488;42.616;23.350;2023-02-22T00:47:50;62854.97;;;8.33;48.26
6899;BME280;3488;42.616;23.350;2023-02-22T00:50:18;62861.63;;;8.37;48.30
6899;BME280;3488;42.616;23.350;2023-02-22T00:52:46;62864.69;;;8.38;48.37
6899;BME280;3488;42.616;23.350;2023-02-22T00:55:17;62862.22;;;8.43;48.13
6899;BME280;3488;42.616;23.350;2023-02-22T00:57:44;62865.81;;;8.44;47.81
6899;BME280;3488;42.616;23.350;2023-02-22T01:00:16;62878.13;;;8.51;47.63
6899;BME280;3488;42.616;23.350;2023-02-22T01:02:44;62879.75;;;8.57;47.69
6899;BME280;3488;42.616;23.350;2023-02-22T01:05:18;62880.78;;;8.58;47.75
6899;BME280;3488;42.616;23.350;2023-02-22T01:07:46;62884.88;;;8.60;47.66
6899;BME280;3488;42.616;23.350;2023-02-22T01:10:15;62884.88;;;8.60;48.53
6899;BME280;3488;42.616;23.350;2023-02-22T01:12:43;62885.91;;;8.61;47.77
6899;BME280;3488;42.616;23.350;2023-02-22T01:15:11;62879.75;;;8.57;47.93
6899;BME280;3488;42.616;23.350;2023-02-22T01:17:39;62883.88;;;8.61;47.72
6899;BME280;3488;42.616;23.350;2023-02-22T01:20:10;62881.34;;;8.61;48.21
6899;BME280;3488;42.616;23.350;2023-02-22T01:22:41;62890.09;;;8.67;47.92
6899;BME280;3488;42.616;23.350;2023-02-22T01:25:09;62893.66;;;8.68;47.88
6899;BME280;3488;42.616;23.350;2023-02-22T01:27:37;62892.06;;;8.64;48.16
6899;BME280;3488;42.616;23.350;2023-02-22T01:30:05;62885.47;;;8.65;48.34
6899;BME280;3488;42.616;23.350;2023-02-22T01:32:33;62891.03;;;8.63;47.99
6899;BME280;3488;42.616;23.350;2023-02-22T01:35:01;62894.16;;;8.69;47.88
6899;BME280;3488;42.616;23.350;2023-02-22T01:37:30;62898.78;;;8.71;47.99
6899;BME280;3488;42.616;23.350;2023-02-22T01:39:58;62889.03;;;8.66;48.22
6899;BME280;3488;42.616;23.350;2023-02-22T01:42:26;62888.47;;;8.63;48.24
6899;BME280;3488;42.616;23.350;2023-02-22T01:47:55;62896.19;;;8.68;48.28
6899;BME280;3488;42.616;23.350;2023-02-22T01:50:23;62883.88;;;8.61;48.65
6899;BME280;3488;42.616;23.350;2023-02-22T01:52:50;62888.00;;;8.65;48.53
6899;BME280;3488;42.616;23.350;2023-02-22T01:55:19;62886.50;;;8.66;49.03
6899;BME280;3488;42.616;23.350;2023-02-22T01:57:46;62888.44;;;8.61;49.24
6899;BME280;3488;42.616;23.350;2023-02-22T02:00:16;62884.31;;;8.57;49.58
6899;BME280;3488;42.616;23.350;2023-02-22T02:02:48;62873.09;;;8.53;49.79
6899;BME280;3488;42.616;23.350;2023-02-22T02:05:16;62866.28;;;8.42;50.18
6899;BME280;3488;42.616;23.350;2023-02-22T02:07:44;62855.47;;;8.34;50.16
6899;BME280;3488;42.616;23.350;2023-02-22T02:10:13;62862.66;;;8.38;50.33
6899;BME280;3488;42.616;23.350;2023-02-22T02:12:43;62866.28;;;8.42;50.15
6899;BME280;3488;42.616;23.350;2023-02-22T02:15:17;62859.50;;;8.33;50.45
6899;BME280;3488;42.616;23.350;2023-02-22T02:17:44;62862.19;;;8.40;50.14
6899;BME280;3488;42.616;23.350;2023-02-22T02:20:16;62864.72;;;8.40;49.75
6899;BME280;3488;42.616;23.350;2023-02-22T02:22:51;62856.97;;;8.33;50.14
6899;BME280;3488;42.616;23.350;2023-02-22T02:25:44;62852.34;;;8.28;50.15
6899;BME280;3488;42.616;23.350;2023-02-22T02:28:45;62847.22;;;8.26;50.55
6899;BME280;3488;42.616;23.350;2023-02-22T02:34:15;62835.25;;;8.11;51.05
6899;BME280;3488;42.616;23.350;2023-02-22T02:37:01;62833.78;;;8.12;51.09
6899;BME280;3488;42.616;23.350;2023-02-22T02:39:34;62834.72;;;8.08;51.56
6899;BME280;3488;42.616;23.350;2023-02-22T02:42:07;62818.31;;;8.00;51.71
6899;BME280;3488;42.616;23.350;2023-02-22T02:44:40;62814.16;;;7.93;52.16
6899;BME280;3488;42.616;23.350;2023-02-22T02:47:13;62806.88;;;7.84;51.82
6899;BME280;3488;42.616;23.350;2023-02-22T02:49:48;62800.09;;;7.75;52.04
6899;BME280;3488;42.616;23.350;2023-02-22T02:52:18;62789.84;;;7.67;52.33
6899;BME280;3488;42.616;23.350;2023-02-22T02:54:47;62782.09;;;7.60;52.55
6899;BME280;3488;42.616;23.350;2023-02-22T02:57:15;62779.00;;;7.57;52.94
6899;BME280;3488;42.616;23.350;2023-02-22T02:59:42;62772.28;;;7.50;52.96
6899;BME280;3488;42.616;23.350;2023-02-22T03:02:18;62759.38;;;7.38;53.47
6899;BME280;3488;42.616;23.350;2023-02-22T03:05:03;62750.72;;;7.34;54.32
6899;BME280;3488;42.616;23.350;2023-02-22T03:07:44;62738.28;;;7.20;54.37
6899;BME280;3488;42.616;23.350;2023-02-22T03:10:22;62740.81;;;7.20;54.71
6899;BME280;3488;42.616;23.350;2023-02-22T03:13:00;62738.25;;;7.17;54.30
6899;BME280;3488;42.616;23.350;2023-02-22T03:15:37;62738.69;;;7.15;55.12
6899;BME280;3488;42.616;23.350;2023-02-22T03:18:14;62723.28;;;7.02;54.92
6899;BME280;3488;42.616;23.350;2023-02-22T03:20:52;62697.03;;;6.79;54.75
6899;BME280;3488;42.616;23.350;2023-02-22T03:23:24;62723.78;;;7.03;54.98
6899;BME280;3488;42.616;23.350;2023-02-22T03:25:56;62714.00;;;6.93;54.55
6899;BME280;3488;42.616;23.350;2023-02-22T03:28:25;62728.91;;;7.06;54.58
6899;BME280;3488;42.616;23.350;2023-02-22T03:30:57;62730.03;;;7.12;55.05
6899;BME280;3488;42.616;23.350;2023-02-22T03:33:31;62738.69;;;7.15;55.55
6899;BME280;3488;42.616;23.350;2023-02-22T03:36:08;62736.63;;;7.13;55.25
6899;BME280;3488;42.616;23.350;2023-02-22T03:38:39;62739.78;;;7.19;54.96
6899;BME280;3488;42.616;23.350;2023-02-22T03:41:09;62748.03;;;7.27;54.66
6899;BME280;3488;42.616;23.350;2023-02-22T03:43:38;62758.38;;;7.37;54.54
6899;BME280;3488;42.616;23.350;2023-02-22T03:46:08;62773.84;;;7.52;54.35
6899;BME280;3488;42.616;23.350;2023-02-22T03:48:41;62780.09;;;7.60;54.02
6899;BME280;3488;42.616;23.350;2023-02-22T03:51:12;62794.53;;;7.74;53.58
6899;BME280;3488;42.616;23.350;2023-02-22T03:53:41;62804.81;;;7.82;53.37
6899;BME280;3488;42.616;23.350;2023-02-22T03:56:12;62814.63;;;7.91;53.38
6899;BME280;3488;42.616;23.350;2023-02-22T03:58:41;62815.69;;;7.95;53.33
6899;BME280;3488;42.616;23.350;2023-02-22T04:01:11;62821.94;;;8.03;53.19
6899;BME280;3488;42.616;23.350;2023-02-22T04:03:38;62829.59;;;8.06;53.60
6899;BME280;3488;42.616;23.350;2023-02-22T04:06:07;62827.56;;;8.06;52.96
6899;BME280;3488;42.616;23.350;2023-02-22T04:08:36;62830.09;;;8.06;53.13
6899;BME280;3488;42.616;23.350;2023-02-22T04:11:03;62838.31;;;8.12;54.14
6899;BME280;3488;42.616;23.350;2023-02-22T04:13:59;62818.78;;;7.98;53.71
6899;BME280;3488;42.616;23.350;2023-02-22T04:16:29;62813.63;;;7.93;53.27
6899;BME280;3488;42.616;23.350;2023-02-22T04:18:56;62812.59;;;7.92;53.89
6899;BME280;3488;42.616;23.350;2023-02-22T04:21:23;62822.84;;;7.97;53.32
6899;BME280;3488;42.616;23.350;2023-02-22T04:23:51;62815.22;;;7.97;52.83
6899;BME280;3488;42.616;23.350;2023-02-22T04:26:18;62811.63;;;7.93;53.19
6899;BME280;3488;42.616;23.350;2023-02-22T04:28:45;62822.34;;;7.99;53.14
6899;BME280;3488;42.616;23.350;2023-02-22T04:31:12;62817.72;;;7.94;53.03
6899;BME280;3488;42.616;23.350;2023-02-22T04:33:39;62810.00;;;7.89;53.14
6899;BME280;3488;42.616;23.350;2023-02-22T04:36:07;62805.88;;;7.85;53.48
6899;BME280;3488;42.616;23.350;2023-02-22T04:38:35;62803.84;;;7.83;53.42
6899;BME280;3488;42.616;23.350;2023-02-22T04:41:03;62798.63;;;7.76;54.41
6899;BME280;3488;42.616;23.350;2023-02-22T04:43:30;62790.91;;;7.71;53.95
6899;BME280;3488;42.616;23.350;2023-02-22T04:45:57;62792.94;;;7.70;55.12
6899;BME280;3488;42.616;23.350;2023-02-22T04:48:24;62783.63;;;7.61;54.97
6899;BME280;3488;42.616;23.350;2023-02-22T04:50:52;62775.91;;;7.54;55.28
6899;BME280;3488;42.616;23.350;2023-02-22T04:53:19;62760.47;;;7.41;56.00
6899;BME280;3488;42.616;23.350;2023-02-22T04:55:46;62756.81;;;7.35;56.02
6899;BME280;3488;42.616;23.350;2023-02-22T04:58:14;62759.91;;;7.38;56.22
6899;BME280;3488;42.616;23.350;2023-02-22T05:00:42;62767.03;;;7.40;56.14
6899;BME280;3488;42.616;23.350;2023-02-22T05:03:09;62752.78;;;7.36;56.79
6899;BME280;3488;42.616;23.350;2023-02-22T05:05:36;62748.50;;;7.25;56.88
6899;BME280;3488;42.616;23.350;2023-02-22T05:08:03;62740.34;;;7.22;57.11
6899;BME280;3488;42.616;23.350;2023-02-22T05:10:30;62729.03;;;7.13;57.74
6899;BME280;3488;42.616;23.350;2023-02-22T05:12:58;62733.03;;;7.10;58.69
6899;BME280;3488;42.616;23.350;2023-02-22T05:15:26;62728.38;;;7.05;58.79
6899;BME280;3488;42.616;23.350;2023-02-22T05:17:53;62732.00;;;7.09;59.13
6899;BME280;3488;42.616;23.350;2023-02-22T05:20:23;62726.41;;;7.08;59.20
6899;BME280;3488;42.616;23.350;2023-02-22T05:22:52;62728.47;;;7.10;59.41
6899;BME280;3488;42.616;23.350;2023-02-22T05:25:19;62732.19;;;7.19;59.11
6899;BME280;3488;42.616;23.350;2023-02-22T05:27:49;62731.06;;;7.13;59.47
6899;BME280;3488;42.616;23.350;2023-02-22T05:30:26;62741.84;;;7.21;59.57
6899;BME280;3488;42.616;23.350;2023-02-22T05:32:56;62748.56;;;7.27;59.64
6899;BME280;3488;42.616;23.350;2023-02-22T05:35:24;62748.09;;;7.29;59.23
6899;BME280;3488;42.616;23.350;2023-02-22T05:37:52;62750.72;;;7.34;58.99
6899;BME280;3488;42.616;23.350;2023-02-22T05:40:20;62757.31;;;7.36;58.96
6899;BME280;3488;42.616;23.350;2023-02-22T05:42:48;62761.97;;;7.40;58.83
6899;BME280;3488;42.616;23.350;2023-02-22T05:45:17;62769.72;;;7.48;58.50
6899;BME280;3488;42.616;23.350;2023-02-22T05:47:44;62760.94;;;7.39;58.73
6899;BME280;3488;42.616;23.350;2023-02-22T05:50:14;62758.97;;;7.42;58.81
6899;BME280;3488;42.616;23.350;2023-02-22T05:52:41;62778.44;;;7.54;59.12
6899;BME280;3488;42.616;23.350;2023-02-22T05:55:09;62785.75;;;7.66;58.46
6899;BME280;3488;42.616;23.350;2023-02-22T05:57:36;62784.22;;;7.64;60.03
6899;BME280;3488;42.616;23.350;2023-02-22T06:00:04;62779.63;;;7.62;59.69
6899;BME280;3488;42.616;23.350;2023-02-22T06:02:32;62782.72;;;7.65;60.04
6899;BME280;3488;42.616;23.350;2023-02-22T06:04:59;62786.25;;;7.66;60.82
6899;BME280;3488;42.616;23.350;2023-02-22T06:07:27;62788.28;;;7.66;60.92
6899;BME280;3488;42.616;23.350;2023-02-22T06:09:54;62787.31;;;7.67;60.35
6899;BME280;3488;42.616;23.350;2023-02-22T06:12:21;62789.78;;;7.65;60.21
6899;BME280;3488;42.616;23.350;2023-02-22T06:14:48;62797.06;;;7.74;60.27
6899;BME280;3488;42.616;23.350;2023-02-22T06:17:15;62783.59;;;7.59;62.43
6899;BME280;3488;42.616;23.350;2023-02-22T06:19:42;62793.97;;;7.71;61.50
6899;BME280;3488;42.616;23.350;2023-02-22T06:22:15;62802.25;;;7.82;62.19
6899;BME280;3488;42.616;23.350;2023-02-22T06:24:43;62810.00;;;7.89;61.99
6899;BME280;3488;42.616;23.350;2023-02-22T06:27:11;62824.38;;;7.98;61.04
6899;BME280;3488;42.616;23.350;2023-02-22T06:29:38;62824.47;;;8.03;61.08
6899;BME280;3488;42.616;23.350;2023-02-22T06:32:05;62830.66;;;8.09;61.30
6899;BME280;3488;42.616;23.350;2023-02-22T06:34:32;62844.63;;;8.23;60.86
6899;BME280;3488;42.616;23.350;2023-02-22T06:36:59;62861.16;;;8.39;60.62
6899;BME280;3488;42.616;23.350;2023-02-22T06:39:26;62878.63;;;8.51;60.22
6899;BME280;3488;42.616;23.350;2023-02-22T06:41:54;62883.38;;;8.61;59.95
6899;BME280;3488;42.616;23.350;2023-02-22T06:44:22;62896.78;;;8.74;58.96
6899;BME280;3488;42.616;23.350;2023-02-22T06:46:49;62902.47;;;8.79;58.62
6899;BME280;3488;42.616;23.350;2023-02-22T06:49:17;62928.75;;;9.00;57.87
6899;BME280;3488;42.616;23.350;2023-02-22T06:51:45;62951.53;;;9.24;56.98
6899;BME280;3488;42.616;23.350;2023-02-22T06:54:12;62972.25;;;9.47;57.22
6899;BME280;3488;42.616;23.350;2023-02-22T06:56:40;62979.44;;;9.52;56.48
6899;BME280;3488;42.616;23.350;2023-02-22T06:59:09;62979.41;;;9.49;55.74
6899;BME280;3488;42.616;23.350;2023-02-22T07:01:36;62969.19;;;9.47;55.16
6899;BME280;3488;42.616;23.350;2023-02-22T07:04:06;62947.41;;;9.20;55.79
6899;BME280;3488;42.616;23.350;2023-02-22T07:06:33;62941.28;;;9.19;55.91
6899;BME280;3488;42.616;23.350;2023-02-22T07:09:01;62938.16;;;9.16;57.12
6899;BME280;3488;42.616;23.350;2023-02-22T07:11:27;62942.22;;;9.15;57.14
6899;BME280;3488;42.616;23.350;2023-02-22T07:13:54;62920.09;;;8.99;56.78
6899;BME280;3488;42.616;23.350;2023-02-22T07:16:23;62927.19;;;8.98;55.93
6899;BME280;3488;42.616;23.350;2023-02-22T07:18:50;62933.91;;;9.05;55.70
6899;BME280;3488;42.616;23.350;2023-02-22T07:21:17;62909.72;;;8.86;55.37
6899;BME280;3488;42.616;23.350;2023-02-22T07:23:50;62888.00;;;8.65;56.27
6899;BME280;3488;42.616;23.350;2023-02-22T07:26:18;62884.91;;;8.62;56.67
6899;BME280;3488;42.616;23.350;2023-02-22T07:28:45;62887.97;;;8.63;57.28
6899;BME280;3488;42.616;23.350;2023-02-22T07:31:12;62896.78;;;8.74;56.76
6899;BME280;3488;42.616;23.350;2023-02-22T07:33:40;62900.84;;;8.73;57.00
6899;BME280;3488;42.616;23.350;2023-02-22T07:36:08;62906.09;;;8.83;56.62
6899;BME280;3488;42.616;23.350;2023-02-22T07:38:34;62904.50;;;8.79;56.41
6899;BME280;3488;42.616;23.350;2023-02-22T07:41:01;62896.84;;;8.76;56.22
6899;BME280;3488;42.616;23.350;2023-02-22T07:43:28;62907.13;;;8.84;56.06
6899;BME280;3488;42.616;23.350;2023-02-22T07:45:58;62926.25;;;9.02;55.12
6899;BME280;3488;42.616;23.350;2023-02-22T07:48:28;62945.84;;;9.19;54.71
6899;BME280;3488;42.616;23.350;2023-02-22T07:50:57;62958.31;;;9.33;54.45
6899;BME280;3488;42.616;23.350;2023-02-22T07:53:25;62962.44;;;9.38;53.98
6899;BME280;3488;42.616;23.350;2023-02-22T07:55:55;62963.97;;;9.39;54.36
6899;BME280;3488;42.616;23.350;2023-02-22T07:58:24;62976.38;;;9.51;54.34
6899;BME280;3488;42.616;23.350;2023-02-22T08:00:52;63001.16;;;9.73;54.26
6899;BME280;3488;42.616;23.350;2023-02-22T08:03:22;63019.78;;;9.91;53.69
6899;BME280;3488;42.616;23.350;2023-02-22T08:05:52;63039.97;;;10.10;53.14
6899;BME280;3488;42.616;23.350;2023-02-22T08:08:21;63055.97;;;10.23;52.69
6899;BME280;3488;42.616;23.350;2023-02-22T08:10:49;63057.63;;;10.30;52.84
6899;BME280;3488;42.616;23.350;2023-02-22T08:13:17;63071.09;;;10.45;52.10
6899;BME280;3488;42.616;23.350;2023-02-22T08:15:45;63071.06;;;10.43;52.35
6899;BME280;3488;42.616;23.350;2023-02-22T08:18:14;63086.09;;;10.60;51.52
6899;BME280;3488;42.616;23.350;2023-02-22T08:20:43;63106.69;;;10.73;51.32
6899;BME280;3488;42.616;23.350;2023-02-22T08:23:12;63110.34;;;10.79;51.08
6899;BME280;3488;42.616;23.350;2023-02-22T08:25:41;63119.19;;;10.90;50.74
6899;BME280;3488;42.616;23.350;2023-02-22T08:28:10;63122.75;;;10.91;50.31
6899;BME280;3488;42.616;23.350;2023-02-22T08:30:39;63123.81;;;10.92;50.00
6899;BME280;3488;42.616;23.350;2023-02-22T08:33:07;63128.00;;;10.98;49.96
6899;BME280;3488;42.616;23.350;2023-02-22T08:35:34;63146.59;;;11.14;49.57
6899;BME280;3488;42.616;23.350;2023-02-22T08:38:03;63153.38;;;11.23;48.93
6899;BME280;3488;42.616;23.350;2023-02-22T08:40:32;63162.63;;;11.29;48.95
6899;BME280;3488;42.616;23.350;2023-02-22T08:43:01;63159.53;;;11.26;48.85
6899;BME280;3488;42.616;23.350;2023-02-22T08:45:29;63165.19;;;11.29;49.05
6899;BME280;3488;42.616;23.350;2023-02-22T08:47:56;63171.97;;;11.38;48.63
6899;BME280;3488;42.616;23.350;2023-02-22T08:50:26;63178.22;;;11.47;48.65
6899;BME280;3488;42.616;23.350;2023-02-22T08:52:55;63193.72;;;11.59;47.94
6899;BME280;3488;42.616;23.350;2023-02-22T08:55:26;63210.81;;;11.76;47.89
6899;BME280;3488;42.616;23.350;2023-02-22T08:57:54;63212.44;;;11.80;47.81
6899;BME280;3488;42.616;23.350;2023-02-22T09:00:23;63203.63;;;11.72;47.84
6899;BME280;3488;42.616;23.350;2023-02-22T09:02:50;63231.59;;;11.99;47.50
6899;BME280;3488;42.616;23.350;2023-02-22T09:05:18;63264.19;;;12.28;46.83
6899;BME280;3488;42.616;23.350;2023-02-22T09:07:45;63285.94;;;12.46;46.52
6899;BME280;3488;42.616;23.350;2023-02-22T09:10:14;63306.69;;;12.69;46.65
6899;BME280;3488;42.616;23.350;2023-02-22T09:12:41;63317.63;;;12.82;46.17
6899;BME280;3488;42.616;23.350;2023-02-22T09:15:08;63327.97;;;12.90;44.90
6899;BME280;3488;42.616;23.350;2023-02-22T09:17:38;63335.69;;;12.95;45.12
6899;BME280;3488;42.616;23.350;2023-02-22T09:20:06;63356.47;;;13.15;42.73
6899;BME280;3488;42.616;23.350;2023-02-22T09:22:34;63352.31;;;13.11;43.33
6899;BME280;3488;42.616;23.350;2023-02-22T09:25:01;63363.75;;;13.24;43.45
6899;BME280;3488;42.616;23.350;2023-02-22T09:27:28;63357.06;;;13.20;42.94
6899;BME280;3488;42.616;23.350;2023-02-22T09:29:55;63372.59;;;13.33;42.81
6899;BME280;3488;42.616;23.350;2023-02-22T09:32:23;63392.84;;;13.55;42.87
6899;BME280;3488;42.616;23.350;2023-02-22T09:34:53;63407.31;;;13.64;42.81
6899;BME280;3488;42.616;23.350;2023-02-22T09:37:20;63425.03;;;13.86;41.32
6899;BME280;3488;42.616;23.350;2023-02-22T09:39:47;63446.28;;;14.04;39.80
6899;BME280;3488;42.616;23.350;2023-02-22T09:42:20;63428.09;;;13.86;41.64
6899;BME280;3488;42.616;23.350;2023-02-22T09:44:56;63419.28;;;13.78;41.35
6899;BME280;3488;42.616;23.350;2023-02-22T09:47:39;63455.59;;;14.11;41.79
6899;BME280;3488;42.616;23.350;2023-02-22T09:50:11;63470.06;;;14.22;41.05
6899;BME280;3488;42.616;23.350;2023-02-22T09:52:50;63441.13;;;14.02;41.90
6899;BME280;3488;42.616;23.350;2023-02-22T09:55:27;63463.94;;;14.21;40.19
6899;BME280;3488;42.616;23.350;2023-02-22T09:58:01;63458.22;;;14.16;40.48
6899;BME280;3488;42.616;23.350;2023-02-22T10:00:30;63440.56;;;13.99;41.17
6899;BME280;3488;42.616;23.350;2023-02-22T10:03:15;63426.06;;;13.87;40.67
6899;BME280;3488;42.616;23.350;2023-02-22T10:05:51;63429.13;;;13.85;41.50
6899;BME280;3488;42.616;23.350;2023-02-22T10:08:19;63436.41;;;13.94;41.70
6899;BME280;3488;42.616;23.350;2023-02-22T10:10:50;63453.50;;;14.09;41.39
6899;BME280;3488;42.616;23.350;2023-02-22T10:13:29;63457.13;;;14.10;40.62
6899;BME280;3488;42.616;23.350;2023-02-22T10:16:07;63443.69;;;14.02;41.59
6899;BME280;3488;42.616;23.350;2023-02-22T10:19:04;63469.59;;;14.24;41.62
6899;BME280;3488;42.616;23.350;2023-02-22T10:22:18;63450.41;;;14.06;40.65
6899;BME280;3488;42.616;23.350;2023-02-22T10:24:55;63450.91;;;14.06;40.93
6899;BME280;3488;42.616;23.350;2023-02-22T10:27:29;63476.44;;;14.36;40.43
6899;BME280;3488;42.616;23.350;2023-02-22T10:30:01;63480.03;;;14.37;41.11
6899;BME280;3488;42.616;23.350;2023-02-22T10:32:38;63475.84;;;14.30;40.82
6899;BME280;3488;42.616;23.350;2023-02-22T10:35:17;63476.88;;;14.31;41.68
6899;BME280;3488;42.616;23.350;2023-02-22T10:37:48;63480.03;;;14.37;42.01
6899;BME280;3488;42.616;23.350;2023-02-22T10:40:20;63468.59;;;14.26;41.19
6899;BME280;3488;42.616;23.350;2023-02-22T10:42:57;63495.09;;;14.51;40.95
6899;BME280;3488;42.616;23.350;2023-02-22T10:45:27;63489.91;;;14.46;41.01
6899;BME280;3488;42.616;23.350;2023-02-22T10:47:57;63517.91;;;14.71;40.72
6899;BME280;3488;42.616;23.350;2023-02-22T10:50:27;63516.41;;;14.74;40.59
6899;BME280;3488;42.616;23.350;2023-02-22T10:52:57;63537.16;;;14.92;40.85
6899;BME280;3488;42.616;23.350;2023-02-22T10:55:24;63540.75;;;14.93;40.63
6899;BME280;3488;42.616;23.350;2023-02-22T10:57:59;63538.19;;;14.93;40.70
6899;BME280;3488;42.616;23.350;2023-02-22T11:00:31;63552.75;;;15.07;40.26
6899;BME280;3488;42.616;23.350;2023-02-22T11:03:03;63565.75;;;15.20;40.37
6899;BME280;3488;42.616;23.350;2023-02-22T11:05:34;63582.91;;;15.39;39.31
6899;BME280;3488;42.616;23.350;2023-02-22T11:08:23;63557.94;;;15.12;38.06
6899;BME280;3488;42.616;23.350;2023-02-22T11:10:53;63544.94;;;14.97;39.08
6899;BME280;3488;42.616;23.350;2023-02-22T11:13:26;63556.91;;;15.11;39.79
6899;BME280;3488;42.616;23.350;2023-02-22T11:15:54;63579.25;;;15.33;38.30
6899;BME280;3488;42.616;23.350;2023-02-22T11:18:24;63591.19;;;15.42;37.91
6899;BME280;3488;42.616;23.350;2023-02-22T11:21:00;63560.56;;;15.15;38.69
6899;BME280;3488;42.616;23.350;2023-02-22T11:23:31;63583.44;;;15.39;38.08
6899;BME280;3488;42.616;23.350;2023-02-22T11:26:09;63589.63;;;15.40;37.85
6899;BME280;3488;42.616;23.350;2023-02-22T11:28:42;63593.28;;;15.46;37.95
6899;BME280;3488;42.616;23.350;2023-02-22T11:31:15;63599.00;;;15.52;38.24
6899;BME280;3488;42.616;23.350;2023-02-22T11:33:53;63622.88;;;15.72;36.99
6899;BME280;3488;42.616;23.350;2023-02-22T11:36:30;63624.94;;;15.72;37.65
6899;BME280;3488;42.616;23.350;2023-02-22T11:38:59;63630.75;;;15.85;36.35
6899;BME280;3488;42.616;23.350;2023-02-22T11:41:31;63614.63;;;15.67;36.02
6899;BME280;3488;42.616;23.350;2023-02-22T11:44:13;63630.75;;;15.82;36.31
6899;BME280;3488;42.616;23.350;2023-02-22T11:46:41;63642.63;;;15.89;36.58
6899;BME280;3488;42.616;23.350;2023-02-22T11:49:10;63659.28;;;16.07;36.56
6899;BME280;3488;42.616;23.350;2023-02-22T11:51:45;63637.94;;;15.84;37.07
6899;BME280;3488;42.616;23.350;2023-02-22T11:54:26;63611.47;;;15.61;37.66
6899;BME280;3488;42.616;23.350;2023-02-22T11:57:06;63639.03;;;15.90;37.31
6899;BME280;3488;42.616;23.350;2023-02-22T11:59:46;63648.44;;;16.02;36.72
6899;BME280;3488;42.616;23.350;2023-02-22T12:02:31;63662.94;;;16.13;36.27
6899;BME280;3488;42.616;23.350;2023-02-22T12:05:21;63645.28;;;15.96;36.70
6899;BME280;3488;42.616;23.350;2023-02-22T12:07:59;63662.94;;;16.13;35.52
6899;BME280;3488;42.616;23.350;2023-02-22T12:10:43;63672.25;;;16.17;35.78
6899;BME280;3488;42.616;23.350;2023-02-22T12:13:31;63664.50;;;16.12;35.62
6899;BME280;3488;42.616;23.350;2023-02-22T12:16:08;63665.00;;;16.13;35.85
6899;BME280;3488;42.616;23.350;2023-02-22T12:18:51;63654.09;;;16.02;36.45
6899;BME280;3488;42.616;23.350;2023-02-22T12:21:25;63644.72;;;15.93;36.59
6899;BME280;3488;42.616;23.350;2023-02-22T12:24:00;63644.72;;;15.93;37.13
6899;BME280;3488;42.616;23.350;2023-02-22T12:26:34;63627.09;;;15.79;36.86
6899;BME280;3488;42.616;23.350;2023-02-22T12:29:07;63623.97;;;15.76;37.25
6899;BME280;3488;42.616;23.350;2023-02-22T12:31:37;63623.94;;;15.73;36.70
6899;BME280;3488;42.616;23.350;2023-02-22T12:34:10;63650.97;;;15.99;36.40
6899;BME280;3488;42.616;23.350;2023-02-22T12:36:43;63656.13;;;16.02;36.00
6899;BME280;3488;42.616;23.350;2023-02-22T12:39:26;63658.28;;;16.09;36.38
6899;BME280;3488;42.616;23.350;2023-02-22T12:41:58;63629.19;;;15.83;35.94
6899;BME280;3488;42.616;23.350;2023-02-22T12:44:31;63656.19;;;16.04;35.00
6899;BME280;3488;42.616;23.350;2023-02-22T12:47:00;63675.41;;;16.23;35.37
6899;BME280;3488;42.616;23.350;2023-02-22T12:49:32;63686.88;;;16.37;35.03
6899;BME280;3488;42.616;23.350;2023-02-22T12:52:08;63683.22;;;16.31;35.16
6899;BME280;3488;42.616;23.350;2023-02-22T12:54:42;63671.84;;;16.25;35.09
6899;BME280;3488;42.616;23.350;2023-02-22T12:57:20;63654.00;;;15.95;35.73
6899;BME280;3488;42.616;23.350;2023-02-22T12:59:56;63649.47;;;16.03;35.54
6899;BME280;3488;42.616;23.350;2023-02-22T13:02:28;63662.94;;;16.13;36.35
6899;BME280;3488;42.616;23.350;2023-02-22T13:04:57;63677.56;;;16.30;36.15
6899;BME280;3488;42.616;23.350;2023-02-22T13:07:35;63696.22;;;16.43;35.74
6899;BME280;3488;42.616;23.350;2023-02-22T13:10:25;63700.97;;;16.53;35.91
6899;BME280;3488;42.616;23.350;2023-02-22T13:13:03;63695.69;;;16.43;35.60
6899;BME280;3488;42.616;23.350;2023-02-22T13:15:43;63693.63;;;16.41;36.07
6899;BME280;3488;42.616;23.350;2023-02-22T13:18:15;63683.22;;;16.31;35.53
6899;BME280;3488;42.616;23.350;2023-02-22T13:20:48;63666.56;;;16.14;36.21
6899;BME280;3488;42.616;23.350;2023-02-22T13:23:29;63700.31;;;16.42;35.38
6899;BME280;3488;42.616;23.350;2023-02-22T13:26:05;63697.81;;;16.47;35.85
6899;BME280;3488;42.616;23.350;2023-02-22T13:28:42;63704.56;;;16.51;35.45
6899;BME280;3488;42.616;23.350;2023-02-22T13:31:40;63672.81;;;16.20;35.45
6899;BME280;3488;42.616;23.350;2023-02-22T13:34:23;63651.53;;;16.02;36.33
6899;BME280;3488;42.616;23.350;2023-02-22T13:37:09;63658.28;;;16.09;36.30
6899;BME280;3488;42.616;23.350;2023-02-22T13:39:59;63655.13;;;16.03;36.07
6899;BME280;3488;42.616;23.350;2023-02-22T13:51:32;63696.22;;;16.43;34.75
6899;BME280;3488;42.616;23.350;2023-02-22T13:54:03;63680.13;;;16.30;35.06